createdAt,value
2022-11-13T00:01:09.336Z,9.72
2022-11-13T00:03:35.901Z,9.10
2022-11-13T00:06:03.232Z,8.67
2022-11-13T00:08:30.200Z,8.65
2022-11-13T00:11:23.019Z,8.57
2022-11-13T00:13:49.809Z,8.55
2022-11-13T00:16:19.180Z,8.50
2022-11-13T00:18:46.978Z,8.78
2022-11-13T00:21:15.011Z,8.94
2022-11-13T00:23:42.500Z,8.98
2022-11-13T00:26:18.166Z,9.01
2022-11-13T00:28:45.209Z,9.05
2022-11-13T00:31:14.984Z,9.20
2022-11-13T00:36:29.169Z,9.31
2022-11-13T00:38:56.467Z,9.35
2022-11-13T00:41:24.046Z,9.37
2022-11-13T00:43:51.073Z,9.24
2022-11-13T00:46:17.620Z,8.73
2022-11-13T00:48:44.568Z,9.48
2022-11-13T00:51:11.255Z,9.65
2022-11-13T00:53:37.872Z,9.71
2022-11-13T00:56:04.794Z,9.72
2022-11-13T00:58:31.689Z,9.29
2022-11-13T01:01:08.004Z,9.77
2022-11-13T01:03:34.978Z,9.75
2022-11-13T01:06:01.748Z,9.79
2022-11-13T01:08:28.628Z,9.74
2022-11-13T01:10:55.448Z,9.81
2022-11-13T01:13:21.994Z,9.77
2022-11-13T01:15:48.548Z,9.66
2022-11-13T01:18:15.122Z,9.61
2022-11-13T01:20:41.766Z,9.60
2022-11-13T01:23:08.582Z,9.48
2022-11-13T01:25:35.270Z,9.36
2022-11-13T01:28:01.865Z,9.23
2022-11-13T01:30:28.568Z,8.60
2022-11-13T01:32:55.129Z,9.15
2022-11-13T01:35:21.694Z,8.93
2022-11-13T01:37:48.362Z,8.57
2022-11-13T01:40:15.155Z,8.92
2022-11-13T01:42:41.760Z,8.88
2022-11-13T01:45:45.584Z,8.79
2022-11-13T01:48:13.008Z,8.71
2022-11-13T01:50:39.771Z,8.62
2022-11-13T01:53:07.455Z,8.60
2022-11-13T01:55:34.886Z,8.21
2022-11-13T01:58:04.051Z,8.36
2022-11-13T02:00:30.647Z,8.36
2022-11-13T02:02:57.198Z,8.08
2022-11-13T02:05:23.755Z,8.23
2022-11-13T02:07:50.400Z,8.25
2022-11-13T02:10:17.353Z,8.20
2022-11-13T02:12:48.632Z,8.11
2022-11-13T02:15:15.831Z,7.65
2022-11-13T02:17:47.561Z,7.91
2022-11-13T02:20:15.547Z,7.87
2022-11-13T02:22:57.128Z,7.86
2022-11-13T02:25:25.649Z,7.85
2022-11-13T02:27:52.368Z,7.80
2022-11-13T02:30:26.774Z,7.39
2022-11-13T02:32:55.355Z,7.56
2022-11-13T02:35:26.799Z,7.42
2022-11-13T02:37:55.637Z,7.34
2022-11-13T02:40:23.541Z,6.55
2022-11-13T02:42:50.222Z,7.18
2022-11-13T02:45:17.196Z,7.17
2022-11-13T02:47:43.934Z,7.13
2022-11-13T02:50:11.562Z,7.14
2022-11-13T02:52:38.193Z,7.20
2022-11-13T02:55:05.709Z,7.22
2022-11-13T02:57:33.114Z,7.22
2022-11-13T02:59:59.639Z,7.41
2022-11-13T03:02:26.210Z,7.44
2022-11-13T03:07:39.321Z,7.50
2022-11-13T03:10:06.387Z,7.65
2022-11-13T03:12:33.760Z,7.42
2022-11-13T03:15:00.432Z,7.69
2022-11-13T03:17:27.038Z,7.41
2022-11-13T03:19:53.569Z,7.82
2022-11-13T03:22:20.150Z,7.87
2022-11-13T03:24:46.676Z,7.93
2022-11-13T03:27:13.308Z,7.91
2022-11-13T03:29:39.834Z,8.10
2022-11-13T03:32:06.506Z,8.17
2022-11-13T03:34:33.051Z,8.16
2022-11-13T03:36:59.635Z,8.20
2022-11-13T03:39:26.219Z,8.27
2022-11-13T03:41:52.772Z,8.23
2022-11-13T03:44:19.310Z,8.26
2022-11-13T03:46:45.880Z,7.27
2022-11-13T03:49:12.603Z,8.03
2022-11-13T03:51:39.229Z,8.04
2022-11-13T03:54:05.811Z,8.27
2022-11-13T03:56:32.358Z,8.20
2022-11-13T03:58:58.924Z,8.19
2022-11-13T04:01:25.592Z,8.31
2022-11-13T04:03:52.161Z,8.41
2022-11-13T04:06:18.741Z,8.32
2022-11-13T04:08:45.305Z,8.20
2022-11-13T04:11:13.070Z,8.19
2022-11-13T04:13:39.784Z,8.18
2022-11-13T04:16:06.797Z,8.21
2022-11-13T04:18:33.627Z,8.23
2022-11-13T04:21:02.341Z,8.15
2022-11-13T04:23:29.201Z,8.38
2022-11-13T04:25:56.137Z,8.33
2022-11-13T04:28:23.129Z,8.30
2022-11-13T04:30:53.909Z,8.37
2022-11-13T04:33:20.735Z,8.41
2022-11-13T04:35:48.559Z,8.39
2022-11-13T04:38:15.645Z,8.34
2022-11-13T04:40:43.037Z,8.24
2022-11-13T04:43:09.819Z,8.37
2022-11-13T04:45:36.845Z,8.43
2022-11-13T04:48:03.574Z,8.56
2022-11-13T04:50:30.325Z,8.19
2022-11-13T04:52:56.880Z,8.56
2022-11-13T04:55:23.581Z,8.62
2022-11-13T04:57:51.650Z,8.39
2022-11-13T05:00:18.574Z,8.79
2022-11-13T05:02:45.405Z,8.86
2022-11-13T05:05:12.066Z,8.37
2022-11-13T05:07:38.667Z,8.91
2022-11-13T05:10:06.169Z,8.82
2022-11-13T05:12:32.714Z,8.90
2022-11-13T05:14:59.257Z,8.81
2022-11-13T05:17:25.877Z,8.40
2022-11-13T05:19:52.520Z,9.03
2022-11-13T05:22:19.126Z,8.96
2022-11-13T05:24:45.712Z,8.95
2022-11-13T05:27:17.007Z,8.68
2022-11-13T05:29:44.197Z,8.88
2022-11-13T05:32:10.802Z,8.83
2022-11-13T05:34:37.360Z,8.77
2022-11-13T05:37:03.946Z,8.98
2022-11-13T05:39:30.482Z,9.04
2022-11-13T05:41:57.044Z,9.08
2022-11-13T05:44:23.642Z,9.21
2022-11-13T05:46:50.365Z,8.90
2022-11-13T05:49:16.938Z,9.13
2022-11-13T05:51:43.461Z,9.27
2022-11-13T05:54:11.199Z,9.35
2022-11-13T05:56:37.846Z,9.36
2022-11-13T05:59:04.987Z,9.24
2022-11-13T06:01:37.425Z,9.27
2022-11-13T06:04:05.312Z,9.39
2022-11-13T06:06:32.559Z,9.35
2022-11-13T06:09:01.465Z,8.81
2022-11-13T06:11:30.120Z,9.69
2022-11-13T06:13:58.187Z,9.62
2022-11-13T06:16:30.187Z,9.68
2022-11-13T06:18:58.797Z,9.79
2022-11-13T06:21:29.666Z,9.77
2022-11-13T06:24:01.402Z,9.92
2022-11-13T06:26:30.697Z,9.96
2022-11-13T06:28:57.932Z,10.23
2022-11-13T06:31:27.066Z,10.31
2022-11-13T06:33:54.344Z,10.50
2022-11-13T06:36:25.045Z,10.53
2022-11-13T06:38:51.872Z,10.55
2022-11-13T06:41:21.684Z,10.68
2022-11-13T06:43:49.128Z,10.63
2022-11-13T06:46:21.255Z,10.58
2022-11-13T06:48:48.229Z,10.85
2022-11-13T06:51:18.439Z,11.06
2022-11-13T06:53:45.320Z,11.14
2022-11-13T06:56:12.881Z,11.28
2022-11-13T06:58:39.589Z,11.41
2022-11-13T07:01:15.362Z,11.50
2022-11-13T07:03:42.781Z,11.59
2022-11-13T07:06:14.861Z,11.49
2022-11-13T07:08:42.673Z,11.74
2022-11-13T07:11:16.391Z,11.84
2022-11-13T07:13:43.638Z,11.83
2022-11-13T07:16:16.904Z,11.86
2022-11-13T07:18:54.464Z,11.64
2022-11-13T07:21:22.149Z,11.55
2022-11-13T07:23:50.182Z,12.11
2022-11-13T07:26:17.045Z,12.06
2022-11-13T07:28:43.673Z,11.96
2022-11-13T07:31:12.604Z,11.93
2022-11-13T07:33:39.173Z,11.89
2022-11-13T07:36:06.386Z,11.93
2022-11-13T07:38:32.947Z,11.85
2022-11-13T07:41:00.564Z,11.78
2022-11-13T07:43:27.339Z,11.86
2022-11-13T07:45:57.209Z,11.92
2022-11-13T07:48:23.819Z,11.97
2022-11-13T07:50:51.388Z,12.09
2022-11-13T07:53:19.137Z,12.10
2022-11-13T07:55:46.233Z,12.11
2022-11-13T07:58:12.896Z,12.26
2022-11-13T08:00:39.857Z,12.27
2022-11-13T08:03:08.678Z,12.08
2022-11-13T08:05:35.963Z,12.40
2022-11-13T08:08:03.150Z,12.38
2022-11-13T08:10:29.774Z,12.37
2022-11-13T08:13:01.637Z,12.42
2022-11-13T08:15:29.427Z,12.51
2022-11-13T08:18:01.033Z,12.93
2022-11-13T08:20:29.092Z,13.28
2022-11-13T08:23:00.648Z,13.87
2022-11-13T08:25:28.817Z,14.26
2022-11-13T08:27:55.898Z,14.65
2022-11-13T08:30:24.360Z,14.88
2022-11-13T08:32:51.380Z,15.04
2022-11-13T08:35:19.675Z,14.90
2022-11-13T08:37:47.412Z,14.72
2022-11-13T08:40:14.404Z,14.23
2022-11-13T08:42:41.021Z,14.55
2022-11-13T08:45:08.400Z,14.58
2022-11-13T08:47:36.628Z,14.40
2022-11-13T08:50:04.186Z,14.07
2022-11-13T08:52:30.790Z,14.44
2022-11-13T08:54:57.453Z,14.71
2022-11-13T08:57:24.041Z,14.37
2022-11-13T08:59:50.596Z,14.62
2022-11-13T09:02:17.209Z,14.75
2022-11-13T09:04:44.280Z,15.12
2022-11-13T09:07:11.615Z,15.31
2022-11-13T09:09:38.277Z,15.41
2022-11-13T09:12:05.101Z,15.27
2022-11-13T09:14:31.715Z,15.80
2022-11-13T09:16:58.300Z,16.00
2022-11-13T09:19:25.225Z,16.38
2022-11-13T09:21:52.257Z,15.98
2022-11-13T09:24:18.869Z,16.09
2022-11-13T09:26:45.404Z,16.58
2022-11-13T09:29:12.083Z,16.69
2022-11-13T09:31:41.191Z,15.93
2022-11-13T09:34:08.770Z,16.29
2022-11-13T09:36:35.870Z,16.43
2022-11-13T09:39:03.070Z,16.63
2022-11-13T09:41:56.407Z,16.95
2022-11-13T09:44:22.915Z,16.96
2022-11-13T09:46:51.305Z,17.04
2022-11-13T09:49:24.119Z,16.72
2022-11-13T09:51:56.898Z,16.79
2022-11-13T09:54:24.065Z,17.04
2022-11-13T09:57:10.961Z,16.27
2022-11-13T09:59:57.064Z,16.24
2022-11-13T10:02:30.021Z,16.32
2022-11-13T10:05:41.022Z,16.29
2022-11-13T10:08:18.626Z,15.71
2022-11-13T10:10:55.945Z,15.93
2022-11-13T10:13:32.266Z,15.12
2022-11-13T10:16:24.945Z,16.02
2022-11-13T10:18:56.196Z,15.71
2022-11-13T10:21:37.649Z,15.53
2022-11-13T10:24:16.025Z,15.88
2022-11-13T10:26:42.678Z,15.76
2022-11-13T10:29:15.343Z,15.72
2022-11-13T10:31:49.380Z,15.85
2022-11-13T10:34:17.172Z,15.81
2022-11-13T10:37:15.033Z,15.94
2022-11-13T10:39:43.950Z,16.05
2022-11-13T10:42:27.451Z,15.71
2022-11-13T10:44:57.899Z,16.09
2022-11-13T10:47:56.816Z,16.25
2022-11-13T10:50:22.041Z,16.41
2022-11-13T10:52:50.812Z,16.50
2022-11-13T10:55:39.135Z,16.56
2022-11-13T10:58:14.566Z,16.39
2022-11-13T11:00:44.466Z,16.11
2022-11-13T11:03:16.621Z,16.15
2022-11-13T11:05:54.856Z,16.54
2022-11-13T11:08:28.188Z,16.43
2022-11-13T11:11:22.072Z,16.21
2022-11-13T11:13:48.910Z,15.40
2022-11-13T11:16:21.803Z,15.78
2022-11-13T11:19:00.527Z,15.33
2022-11-13T11:21:33.834Z,15.02
2022-11-13T11:24:12.335Z,15.21
2022-11-13T11:27:06.082Z,15.44
2022-11-13T11:29:32.582Z,15.57
2022-11-13T11:32:19.406Z,15.72
2022-11-13T11:35:09.034Z,15.86
2022-11-13T11:37:50.472Z,15.97
2022-11-13T11:40:27.955Z,15.90
2022-11-13T11:43:04.469Z,16.04
2022-11-13T11:45:43.448Z,16.13
2022-11-13T11:48:23.423Z,16.22
2022-11-13T11:51:17.093Z,15.91
2022-11-13T11:54:05.261Z,15.94
2022-11-13T11:56:37.159Z,15.49
2022-11-13T11:59:03.669Z,15.58
2022-11-13T12:01:48.170Z,16.21
2022-11-13T12:04:36.238Z,16.33
2022-11-13T12:07:35.146Z,16.58
2022-11-13T12:10:13.381Z,16.61
2022-11-13T12:13:04.257Z,16.74
2022-11-13T12:15:41.110Z,16.88
2022-11-13T12:18:33.241Z,16.86
2022-11-13T12:21:14.681Z,16.84
2022-11-13T12:23:46.593Z,16.80
2022-11-13T12:26:32.038Z,16.75
2022-11-13T12:29:23.925Z,16.82
2022-11-13T12:32:29.714Z,16.79
2022-11-13T12:35:07.574Z,16.52
2022-11-13T12:37:45.532Z,16.09
2022-11-13T12:40:28.169Z,16.13
2022-11-13T12:43:27.704Z,15.60
2022-11-13T12:46:03.997Z,15.82
2022-11-13T12:48:45.033Z,15.99
2022-11-13T12:51:17.353Z,16.10
2022-11-13T12:53:47.008Z,16.24
2022-11-13T12:56:16.614Z,16.07
2022-11-13T12:59:23.732Z,16.42
2022-11-13T13:02:02.897Z,16.20
2022-11-13T13:04:44.853Z,16.30
2022-11-13T13:07:37.622Z,16.28
2022-11-13T13:10:25.758Z,16.19
2022-11-13T13:13:23.654Z,16.22
2022-11-13T13:16:03.572Z,16.25
2022-11-13T13:18:33.247Z,16.25
2022-11-13T13:21:03.292Z,16.31
2022-11-13T13:23:42.561Z,16.30
2022-11-13T13:26:25.917Z,16.25
2022-11-13T13:28:57.113Z,16.26
2022-11-13T13:31:37.430Z,16.19
2022-11-13T13:34:41.346Z,16.22
2022-11-13T13:37:16.906Z,16.00
2022-11-13T13:39:43.453Z,16.02
2022-11-13T13:42:25.613Z,15.96
2022-11-13T13:45:05.829Z,15.90
2022-11-13T13:47:39.047Z,15.88
2022-11-13T13:50:15.495Z,15.88
2022-11-13T13:52:44.236Z,15.98
2022-11-13T13:55:19.744Z,15.92
2022-11-13T13:57:46.814Z,15.91
2022-11-13T14:00:15.512Z,15.88
2022-11-13T14:02:50.037Z,15.91
2022-11-13T14:05:33.390Z,15.77
2022-11-13T14:08:03.882Z,15.75
2022-11-13T14:10:30.554Z,15.27
2022-11-13T14:12:57.526Z,15.63
2022-11-13T14:15:32.492Z,15.49
2022-11-13T14:18:15.532Z,15.40
2022-11-13T14:20:52.877Z,15.33
2022-11-13T14:23:25.133Z,15.29
2022-11-13T14:25:52.285Z,15.25
2022-11-13T14:28:24.395Z,15.12
2022-11-13T14:31:06.749Z,14.45
2022-11-13T14:33:38.271Z,14.85
2022-11-13T14:36:05.674Z,14.58
2022-11-13T14:38:36.592Z,14.67
2022-11-13T14:41:04.647Z,14.49
2022-11-13T14:43:33.107Z,13.78
2022-11-13T14:46:02.602Z,14.18
2022-11-13T14:48:31.483Z,14.00
2022-11-13T14:51:04.340Z,13.80
2022-11-13T14:53:35.329Z,13.64
2022-11-13T14:56:05.395Z,13.49
2022-11-13T14:58:36.081Z,13.36
2022-11-13T15:01:23.462Z,13.13
2022-11-13T15:03:52.051Z,13.02
2022-11-13T15:06:24.734Z,12.90
2022-11-13T15:08:55.737Z,12.85
2022-11-13T15:11:25.477Z,12.73
2022-11-13T15:13:52.254Z,12.66
2022-11-13T15:16:22.992Z,12.25
2022-11-13T15:19:00.449Z,12.44
2022-11-13T15:21:27.150Z,12.40
2022-11-13T15:23:54.038Z,12.30
2022-11-13T15:26:20.612Z,12.20
2022-11-13T15:28:47.289Z,12.16
2022-11-13T15:31:20.751Z,12.06
2022-11-13T15:33:47.710Z,11.86
2022-11-13T15:36:14.805Z,11.79
2022-11-13T15:38:41.421Z,11.70
2022-11-13T15:41:12.808Z,11.44
2022-11-13T15:43:43.258Z,11.57
2022-11-13T15:46:18.233Z,11.05
2022-11-13T15:48:46.078Z,11.19
2022-11-13T15:51:46.474Z,11.12
2022-11-13T15:54:30.292Z,11.06
2022-11-13T15:56:56.725Z,10.96
2022-11-13T15:59:23.282Z,10.37
2022-11-13T16:01:52.878Z,10.48
2022-11-13T16:04:24.176Z,10.61
2022-11-13T16:06:53.987Z,10.60
2022-11-13T16:09:20.541Z,10.44
2022-11-13T16:11:51.529Z,10.32
2022-11-13T16:14:23.401Z,10.22
2022-11-13T16:16:52.029Z,10.09
2022-11-13T16:19:23.475Z,9.91
2022-11-13T16:21:50.269Z,9.80
2022-11-13T16:24:20.982Z,9.86
2022-11-13T16:26:54.693Z,9.79
2022-11-13T16:29:23.900Z,9.53
2022-11-13T16:31:50.644Z,9.58
2022-11-13T16:34:17.247Z,9.41
2022-11-13T16:36:46.439Z,9.38
2022-11-13T16:39:16.969Z,9.50
2022-11-13T16:41:44.096Z,9.37
2022-11-13T16:44:10.654Z,9.17
2022-11-13T16:46:41.779Z,9.32
2022-11-13T16:49:20.161Z,9.30
2022-11-13T16:51:51.121Z,9.09
2022-11-13T16:54:17.674Z,8.33
2022-11-13T16:56:45.152Z,8.99
2022-11-13T16:59:12.434Z,9.10
2022-11-13T17:01:39.062Z,8.42
2022-11-13T17:04:06.040Z,8.83
2022-11-13T17:06:35.549Z,8.80
2022-11-13T17:09:04.126Z,8.67
2022-11-13T17:11:32.082Z,8.27
2022-11-13T17:14:00.610Z,8.59
2022-11-13T17:16:28.835Z,8.73
2022-11-13T17:18:55.956Z,8.59
2022-11-13T17:21:24.635Z,8.66
2022-11-13T17:23:58.784Z,8.65
2022-11-13T17:26:25.845Z,8.57
2022-11-13T17:28:53.265Z,8.16
2022-11-13T17:31:21.670Z,8.51
2022-11-13T17:33:48.393Z,7.57
2022-11-13T17:36:15.009Z,8.45
2022-11-13T17:38:41.682Z,8.40
2022-11-13T17:41:10.807Z,8.31
2022-11-13T17:43:38.703Z,8.10
2022-11-13T17:46:06.349Z,8.10
2022-11-13T17:48:34.119Z,8.07
2022-11-13T17:51:02.976Z,8.16
2022-11-13T17:53:30.691Z,8.11
2022-11-13T17:55:59.877Z,7.91
2022-11-13T17:58:27.669Z,8.11
2022-11-13T18:01:02.421Z,8.06
2022-11-13T18:03:29.365Z,8.02
2022-11-13T18:05:56.185Z,7.80
2022-11-13T18:08:22.751Z,7.95
2022-11-13T18:10:49.287Z,7.99
2022-11-13T18:13:15.849Z,7.87
2022-11-13T18:15:44.151Z,7.49
2022-11-13T18:18:11.280Z,7.51
2022-11-13T18:20:39.993Z,7.78
2022-11-13T18:23:06.547Z,7.67
2022-11-13T18:25:39.452Z,7.55
2022-11-13T18:28:06.466Z,7.54
2022-11-13T18:30:33.079Z,7.44
2022-11-13T18:32:59.651Z,7.32
2022-11-13T18:35:26.269Z,7.30
2022-11-13T18:37:53.177Z,7.18
2022-11-13T18:40:19.757Z,6.98
2022-11-13T18:42:46.354Z,7.03
2022-11-13T18:45:16.361Z,6.88
2022-11-13T18:47:42.933Z,7.00
2022-11-13T18:50:10.051Z,6.98
2022-11-13T18:52:36.652Z,6.93
2022-11-13T18:55:03.376Z,6.93
2022-11-13T18:57:29.964Z,6.83
2022-11-13T18:59:56.514Z,6.88
2022-11-13T19:02:23.886Z,6.64
2022-11-13T19:04:50.576Z,6.78
2022-11-13T19:07:17.456Z,6.75
2022-11-13T19:09:46.086Z,6.71
2022-11-13T19:12:12.749Z,6.74
2022-11-13T19:14:39.322Z,6.06
2022-11-13T19:17:05.978Z,5.68
2022-11-13T19:19:32.736Z,6.40
2022-11-13T19:21:59.389Z,6.31
2022-11-13T19:24:25.994Z,6.24
2022-11-13T19:26:52.551Z,6.26
2022-11-13T19:29:20.283Z,6.38
2022-11-13T19:31:48.519Z,6.40
2022-11-13T19:34:15.387Z,5.61
2022-11-13T19:36:44.942Z,6.31
2022-11-13T19:39:12.121Z,6.29
2022-11-13T19:41:38.668Z,6.27
2022-11-13T19:44:06.554Z,6.34
2022-11-13T19:46:34.139Z,6.35
2022-11-13T19:49:00.753Z,6.33
2022-11-13T19:51:27.867Z,6.26
2022-11-13T19:53:57.123Z,6.31
2022-11-13T19:56:24.935Z,6.35
2022-11-13T19:58:52.552Z,5.82
2022-11-13T20:01:21.840Z,6.40
2022-11-13T20:03:48.832Z,5.83
2022-11-13T20:06:17.598Z,6.34
2022-11-13T20:08:44.369Z,6.40
2022-11-13T20:11:15.673Z,5.80
2022-11-13T20:13:43.371Z,5.74
2022-11-13T20:16:12.935Z,6.30
2022-11-13T20:18:40.312Z,6.29
2022-11-13T20:21:07.396Z,5.66
2022-11-13T20:23:35.421Z,6.25
2022-11-13T20:26:06.852Z,6.26
2022-11-13T20:28:33.939Z,5.75
2022-11-13T20:31:19.706Z,6.21
2022-11-13T20:33:47.591Z,6.09
2022-11-13T20:36:15.730Z,6.08
2022-11-13T20:38:47.032Z,6.15
2022-11-13T20:41:13.843Z,6.00
2022-11-13T20:43:40.449Z,6.09
2022-11-13T20:46:11.665Z,6.06
2022-11-13T20:48:38.645Z,5.56
2022-11-13T20:51:16.196Z,6.07
2022-11-13T20:53:43.155Z,5.64
2022-11-13T20:56:10.252Z,5.97
2022-11-13T20:58:37.415Z,5.87
2022-11-13T21:01:06.332Z,6.00
2022-11-13T21:03:38.514Z,5.98
2022-11-13T21:06:07.612Z,5.82
2022-11-13T21:08:34.370Z,5.46
2022-11-13T21:11:02.487Z,5.95
2022-11-13T21:13:29.161Z,5.96
2022-11-13T21:15:55.713Z,5.89
2022-11-13T21:18:22.261Z,5.96
2022-11-13T21:20:48.852Z,5.92
2022-11-13T21:23:15.484Z,5.94
2022-11-13T21:25:42.378Z,5.95
2022-11-13T21:28:08.951Z,5.78
2022-11-13T21:30:35.520Z,5.83
2022-11-13T21:33:02.066Z,5.78
2022-11-13T21:35:29.064Z,5.76
2022-11-13T21:37:56.049Z,5.64
2022-11-13T21:40:22.577Z,5.63
2022-11-13T21:42:49.181Z,5.54
2022-11-13T21:45:15.778Z,5.48
2022-11-13T21:47:43.435Z,5.45
2022-11-13T21:50:10.482Z,5.42
2022-11-13T21:52:37.159Z,5.41
2022-11-13T21:55:04.018Z,5.08
2022-11-13T21:57:31.902Z,5.22
2022-11-13T21:59:58.717Z,5.27
2022-11-13T22:02:25.289Z,5.20
2022-11-13T22:04:51.992Z,5.29
2022-11-13T22:07:18.593Z,5.30
2022-11-13T22:09:45.280Z,5.23
2022-11-13T22:12:11.993Z,5.12
2022-11-13T22:14:38.534Z,5.24
2022-11-13T22:17:05.134Z,5.20
2022-11-13T22:19:35.970Z,4.98
2022-11-13T22:22:03.181Z,5.12
2022-11-13T22:24:30.809Z,5.12
2022-11-13T22:26:57.476Z,5.08
2022-11-13T22:29:24.070Z,4.29
2022-11-13T22:31:50.621Z,5.02
2022-11-13T22:34:18.278Z,4.89
2022-11-13T22:36:44.845Z,4.90
2022-11-13T22:39:11.428Z,4.93
2022-11-13T22:41:38.033Z,4.86
2022-11-13T22:44:07.441Z,4.71
2022-11-13T22:46:35.855Z,4.89
2022-11-13T22:49:04.732Z,4.93
2022-11-13T22:51:38.910Z,4.76
2022-11-13T22:54:08.211Z,4.88
2022-11-13T22:56:35.903Z,4.90
2022-11-13T22:59:05.229Z,4.04
2022-11-13T23:01:34.113Z,4.98
2022-11-13T23:04:04.306Z,4.97
2022-11-13T23:06:33.590Z,4.23
2022-11-13T23:09:01.171Z,4.81
2022-11-13T23:11:31.471Z,4.88
2022-11-13T23:13:59.674Z,4.80
2022-11-13T23:16:27.725Z,4.75
2022-11-13T23:18:55.925Z,4.54
2022-11-13T23:21:25.125Z,4.59
2022-11-13T23:23:52.237Z,4.61
2022-11-13T23:26:19.240Z,4.61
2022-11-13T23:28:46.127Z,4.57
2022-11-13T23:31:13.157Z,4.35
2022-11-13T23:33:40.598Z,4.47
2022-11-13T23:36:09.505Z,4.49
2022-11-13T23:38:36.280Z,4.08
2022-11-13T23:41:03.289Z,3.76
2022-11-13T23:43:54.275Z,4.33
2022-11-13T23:46:17.078Z,4.32
2022-11-13T23:48:43.749Z,4.49
2022-11-13T23:51:10.362Z,4.45
2022-11-13T23:53:36.972Z,4.61
2022-11-13T23:56:03.885Z,4.47
2022-11-13T23:58:32.249Z,4.42
